sensor_id;sensor_type;location;lat;lon;timestamp;pressure;altitude;pressure_sealevel;temperature;humidity
28181;BME280;15464;50.988;10.318;2023-07-22T00:02:24;98731.59;;;13.99;86.55
28181;BME280;15464;50.988;10.318;2023-07-22T00:04:51;98733.06;;;13.94;87.09
28181;BME280;15464;50.988;10.318;2023-07-22T00:07:18;98730.88;;;13.89;87.39
28181;BME280;15464;50.988;10.318;2023-07-22T00:09:45;98727.00;;;13.84;88.03
28181;BME280;15464;50.988;10.318;2023-07-22T00:12:12;98733.88;;;13.86;87.45
28181;BME280;15464;50.988;10.318;2023-07-22T00:14:40;98734.84;;;13.85;87.78
28181;BME280;15464;50.988;10.318;2023-07-22T00:17:07;98740.19;;;13.85;87.60
28181;BME280;15464;50.988;10.318;2023-07-22T00:19:34;98741.19;;;13.84;87.75
28181;BME280;15464;50.988;10.318;2023-07-22T00:22:01;98749.47;;;13.81;88.96
28181;BME280;15464;50.988;10.318;2023-07-22T00:24:28;98753.78;;;13.74;90.49
28181;BME280;15464;50.988;10.318;2023-07-22T00:26:55;98748.28;;;13.76;89.60
28181;BME280;15464;50.988;10.318;2023-07-22T00:29:22;98760.59;;;13.77;89.12
28181;BME280;15464;50.988;10.318;2023-07-22T00:31:49;98752.41;;;13.70;90.49
28181;BME280;15464;50.988;10.318;2023-07-22T00:34:16;98756.88;;;13.69;89.75
28181;BME280;15464;50.988;10.318;2023-07-22T00:36:43;98754.38;;;13.68;90.19
28181;BME280;15464;50.988;10.318;2023-07-22T00:39:10;98761.84;;;13.64;90.54
28181;BME280;15464;50.988;10.318;2023-07-22T00:41:40;98767.44;;;13.53;92.46
28181;BME280;15464;50.988;10.318;2023-07-22T00:44:09;98767.72;;;13.50;91.96
28181;BME280;15464;50.988;10.318;2023-07-22T00:46:35;98774.44;;;13.54;90.67
28181;BME280;15464;50.988;10.318;2023-07-22T00:49:04;98772.44;;;13.56;90.03
28181;BME280;15464;50.988;10.318;2023-07-22T00:51:32;98774.44;;;13.54;90.13
28181;BME280;15464;50.988;10.318;2023-07-22T00:53:59;98770.78;;;13.55;89.51
28181;BME280;15464;50.988;10.318;2023-07-22T00:56:26;98767.09;;;13.56;89.53
28181;BME280;15464;50.988;10.318;2023-07-22T00:58:55;98761.63;;;13.58;89.21
28181;BME280;15464;50.988;10.318;2023-07-22T01:01:22;98769.13;;;13.54;89.64
28181;BME280;15464;50.988;10.318;2023-07-22T01:03:48;98763.09;;;13.52;89.78
28181;BME280;15464;50.988;10.318;2023-07-22T01:06:15;98770.25;;;13.52;90.19
28181;BME280;15464;50.988;10.318;2023-07-22T01:08:44;98770.38;;;13.50;90.36
28181;BME280;15464;50.988;10.318;2023-07-22T01:11:14;98771.09;;;13.52;89.79
28181;BME280;15464;50.988;10.318;2023-07-22T01:13:40;98770.78;;;13.55;89.64
28181;BME280;15464;50.988;10.318;2023-07-22T01:16:07;98756.63;;;13.55;90.40
28181;BME280;15464;50.988;10.318;2023-07-22T01:18:34;98769.78;;;13.56;89.12
28181;BME280;15464;50.988;10.318;2023-07-22T01:21:01;98765.13;;;13.58;89.36
28181;BME280;15464;50.988;10.318;2023-07-22T01:23:28;98770.47;;;13.58;89.12
28181;BME280;15464;50.988;10.318;2023-07-22T01:25:55;98764.63;;;13.55;88.82
28181;BME280;15464;50.988;10.318;2023-07-22T01:28:22;98762.09;;;13.53;88.94
28181;BME280;15464;50.988;10.318;2023-07-22T01:30:49;98761.88;;;13.47;89.59
28181;BME280;15464;50.988;10.318;2023-07-22T01:33:16;98776.19;;;13.46;88.64
28181;BME280;15464;50.988;10.318;2023-07-22T01:35:42;98774.50;;;13.45;88.35
28181;BME280;15464;50.988;10.318;2023-07-22T01:38:09;98770.94;;;13.36;89.37
28181;BME280;15464;50.988;10.318;2023-07-22T01:40:36;98766.53;;;13.27;90.25
28181;BME280;15464;50.988;10.318;2023-07-22T01:43:02;98772.69;;;13.27;89.52
28181;BME280;15464;50.988;10.318;2023-07-22T01:45:29;98768.50;;;13.25;89.78
28181;BME280;15464;50.988;10.318;2023-07-22T01:47:56;98768.97;;;13.20;90.25
28181;BME280;15464;50.988;10.318;2023-07-22T01:50:22;98762.41;;;13.15;89.99
28181;BME280;15464;50.988;10.318;2023-07-22T01:52:49;98766.91;;;13.14;89.99
28181;BME280;15464;50.988;10.318;2023-07-22T01:55:16;98760.00;;;13.12;89.93
28181;BME280;15464;50.988;10.318;2023-07-22T01:57:43;98766.34;;;13.11;89.26
28181;BME280;15464;50.988;10.318;2023-07-22T02:00:10;98759.63;;;13.07;89.80
28181;BME280;15464;50.988;10.318;2023-07-22T02:02:37;98763.59;;;13.03;89.33
28181;BME280;15464;50.988;10.318;2023-07-22T02:05:05;98765.88;;;12.98;89.45
28181;BME280;15464;50.988;10.318;2023-07-22T02:07:32;98777.13;;;12.91;89.35
28181;BME280;15464;50.988;10.318;2023-07-22T02:09:59;98772.94;;;12.89;88.79
28181;BME280;15464;50.988;10.318;2023-07-22T02:12:26;98781.38;;;12.84;88.87
28181;BME280;15464;50.988;10.318;2023-07-22T02:14:53;98783.78;;;12.78;89.88
28181;BME280;15464;50.988;10.318;2023-07-22T02:17:19;98780.75;;;12.73;89.99
28181;BME280;15464;50.988;10.318;2023-07-22T02:19:47;98785.50;;;12.69;89.54
28181;BME280;15464;50.988;10.318;2023-07-22T02:22:13;98784.97;;;12.66;89.36
28181;BME280;15464;50.988;10.318;2023-07-22T02:24:40;98788.94;;;12.62;89.81
28181;BME280;15464;50.988;10.318;2023-07-22T02:27:07;98784.03;;;12.57;90.16
28181;BME280;15464;50.988;10.318;2023-07-22T02:29:35;98789.78;;;12.52;90.26
28181;BME280;15464;50.988;10.318;2023-07-22T02:32:02;98795.56;;;12.48;90.26
28181;BME280;15464;50.988;10.318;2023-07-22T02:34:28;98796.16;;;12.42;89.76
28181;BME280;15464;50.988;10.318;2023-07-22T02:36:55;98795.91;;;12.35;89.94
28181;BME280;15464;50.988;10.318;2023-07-22T02:39:22;98790.00;;;12.32;90.48
28181;BME280;15464;50.988;10.318;2023-07-22T02:41:48;98795.63;;;12.29;90.15
28181;BME280;15464;50.988;10.318;2023-07-22T02:44:15;98802.06;;;12.26;90.32
28181;BME280;15464;50.988;10.318;2023-07-22T02:46:42;98790.91;;;12.23;91.11
28181;BME280;15464;50.988;10.318;2023-07-22T02:49:08;98795.50;;;12.21;90.32
28181;BME280;15464;50.988;10.318;2023-07-22T02:51:36;98788.97;;;12.15;90.46
28181;BME280;15464;50.988;10.318;2023-07-22T02:54:03;98796.41;;;12.11;90.33
28181;BME280;15464;50.988;10.318;2023-07-22T02:56:30;98799.06;;;12.11;90.05
28181;BME280;15464;50.988;10.318;2023-07-22T02:58:57;98797.50;;;12.09;90.29
28181;BME280;15464;50.988;10.318;2023-07-22T03:01:24;98798.22;;;12.01;90.73
28181;BME280;15464;50.988;10.318;2023-07-22T03:03:51;98793.34;;;11.97;90.54
28181;BME280;15464;50.988;10.318;2023-07-22T03:06:18;98791.78;;;11.94;90.02
28181;BME280;15464;50.988;10.318;2023-07-22T03:08:45;98796.72;;;11.89;90.34
28181;BME280;15464;50.988;10.318;2023-07-22T03:11:11;98803.31;;;11.85;90.53
28181;BME280;15464;50.988;10.318;2023-07-22T03:13:38;98796.56;;;11.81;90.32
28181;BME280;15464;50.988;10.318;2023-07-22T03:16:05;98799.81;;;11.75;90.77
28181;BME280;15464;50.988;10.318;2023-07-22T03:18:32;98805.50;;;11.70;90.83
28181;BME280;15464;50.988;10.318;2023-07-22T03:20:58;98812.78;;;11.68;90.70
28181;BME280;15464;50.988;10.318;2023-07-22T03:23:25;98808.03;;;11.62;91.30
28181;BME280;15464;50.988;10.318;2023-07-22T03:25:52;98809.59;;;11.55;91.48
28181;BME280;15464;50.988;10.318;2023-07-22T03:28:18;98806.94;;;11.55;91.93
28181;BME280;15464;50.988;10.318;2023-07-22T03:30:45;98811.53;;;11.53;92.01
28181;BME280;15464;50.988;10.318;2023-07-22T03:33:12;98811.97;;;11.49;92.53
28181;BME280;15464;50.988;10.318;2023-07-22T03:35:38;98821.19;;;11.45;92.04
28181;BME280;15464;50.988;10.318;2023-07-22T03:38:07;98819.91;;;11.39;92.67
28181;BME280;15464;50.988;10.318;2023-07-22T03:40:34;98826.19;;;11.38;92.56
28181;BME280;15464;50.988;10.318;2023-07-22T03:43:01;98828.19;;;11.36;92.26
28181;BME280;15464;50.988;10.318;2023-07-22T03:45:28;98836.28;;;11.35;92.13
28181;BME280;15464;50.988;10.318;2023-07-22T03:47:59;98827.59;;;11.32;92.67
28181;BME280;15464;50.988;10.318;2023-07-22T03:50:27;98832.91;;;11.32;92.93
28181;BME280;15464;50.988;10.318;2023-07-22T03:52:54;98840.19;;;11.30;92.16
28181;BME280;15464;50.988;10.318;2023-07-22T03:55:20;98831.22;;;11.31;92.63
28181;BME280;15464;50.988;10.318;2023-07-22T03:57:47;98839.34;;;11.30;92.63
28181;BME280;15464;50.988;10.318;2023-07-22T04:00:14;98831.53;;;11.28;92.95
28181;BME280;15464;50.988;10.318;2023-07-22T04:02:41;98839.06;;;11.23;92.94
28181;BME280;15464;50.988;10.318;2023-07-22T04:05:09;98837.38;;;11.22;92.72
28181;BME280;15464;50.988;10.318;2023-07-22T04:07:35;98838.34;;;11.21;92.29
28181;BME280;15464;50.988;10.318;2023-07-22T04:10:02;98832.19;;;11.21;91.93
28181;BME280;15464;50.988;10.318;2023-07-22T04:12:30;98835.69;;;11.21;92.80
28181;BME280;15464;50.988;10.318;2023-07-22T04:14:56;98835.00;;;11.19;93.12
28181;BME280;15464;50.988;10.318;2023-07-22T04:17:23;98840.28;;;11.19;93.13
28181;BME280;15464;50.988;10.318;2023-07-22T04:19:53;98831.66;;;11.17;92.77
28181;BME280;15464;50.988;10.318;2023-07-22T04:22:22;98842.41;;;11.16;92.75
28181;BME280;15464;50.988;10.318;2023-07-22T04:24:49;98844.94;;;11.17;92.66
28181;BME280;15464;50.988;10.318;2023-07-22T04:27:17;98833.47;;;11.17;92.78
28181;BME280;15464;50.988;10.318;2023-07-22T04:29:44;98845.78;;;11.18;92.40
28181;BME280;15464;50.988;10.318;2023-07-22T04:32:10;98839.75;;;11.16;93.31
28181;BME280;15464;50.988;10.318;2023-07-22T04:34:37;98839.63;;;11.17;93.28
28181;BME280;15464;50.988;10.318;2023-07-22T04:37:04;98848.00;;;11.22;93.08
28181;BME280;15464;50.988;10.318;2023-07-22T04:39:31;98844.94;;;11.27;94.10
28181;BME280;15464;50.988;10.318;2023-07-22T04:41:58;98849.41;;;11.26;96.65
28181;BME280;15464;50.988;10.318;2023-07-22T04:44:25;98852.34;;;11.33;95.96
28181;BME280;15464;50.988;10.318;2023-07-22T04:46:51;98848.03;;;11.42;96.73
28181;BME280;15464;50.988;10.318;2023-07-22T04:49:18;98844.25;;;11.54;97.03
28181;BME280;15464;50.988;10.318;2023-07-22T04:51:45;98850.69;;;11.61;98.24
28181;BME280;15464;50.988;10.318;2023-07-22T04:54:13;98853.63;;;11.67;97.78
28181;BME280;15464;50.988;10.318;2023-07-22T04:56:40;98855.03;;;11.81;97.42
28181;BME280;15464;50.988;10.318;2023-07-22T04:59:07;98850.56;;;11.91;97.80
28181;BME280;15464;50.988;10.318;2023-07-22T05:01:35;98853.34;;;11.99;97.71
28181;BME280;15464;50.988;10.318;2023-07-22T05:04:01;98848.03;;;12.09;97.52
28181;BME280;15464;50.988;10.318;2023-07-22T05:06:28;98852.34;;;12.20;96.80
28181;BME280;15464;50.988;10.318;2023-07-22T05:08:55;98850.50;;;12.30;96.64
28181;BME280;15464;50.988;10.318;2023-07-22T05:11:22;98849.63;;;12.39;97.45
28181;BME280;15464;50.988;10.318;2023-07-22T05:13:50;98851.69;;;12.45;96.17
28181;BME280;15464;50.988;10.318;2023-07-22T05:16:17;98852.94;;;12.50;95.68
28181;BME280;15464;50.988;10.318;2023-07-22T05:18:45;98853.34;;;12.56;94.67
28181;BME280;15464;50.988;10.318;2023-07-22T05:21:12;98856.97;;;12.64;94.04
28181;BME280;15464;50.988;10.318;2023-07-22T05:23:38;98849.38;;;12.69;93.68
28181;BME280;15464;50.988;10.318;2023-07-22T05:26:05;98846.69;;;12.79;93.64
28181;BME280;15464;50.988;10.318;2023-07-22T05:28:32;98849.41;;;12.87;93.69
28181;BME280;15464;50.988;10.318;2023-07-22T05:30:59;98848.56;;;12.96;92.86
28181;BME280;15464;50.988;10.318;2023-07-22T05:33:25;98841.78;;;13.02;92.77
28181;BME280;15464;50.988;10.318;2023-07-22T05:35:52;98851.84;;;13.08;92.50
28181;BME280;15464;50.988;10.318;2023-07-22T05:38:19;98856.06;;;13.10;91.71
28181;BME280;15464;50.988;10.318;2023-07-22T05:40:45;98846.50;;;13.17;91.70
28181;BME280;15464;50.988;10.318;2023-07-22T05:43:12;98851.38;;;13.22;91.37
28181;BME280;15464;50.988;10.318;2023-07-22T05:45:39;98842.47;;;13.31;91.20
28181;BME280;15464;50.988;10.318;2023-07-22T05:48:06;98848.50;;;13.33;91.35
28181;BME280;15464;50.988;10.318;2023-07-22T05:50:32;98847.44;;;13.44;91.18
28181;BME280;15464;50.988;10.318;2023-07-22T05:52:59;98843.03;;;13.52;90.62
28181;BME280;15464;50.988;10.318;2023-07-22T05:55:26;98844.25;;;13.58;90.81
28181;BME280;15464;50.988;10.318;2023-07-22T05:57:53;98840.28;;;13.62;89.98
28181;BME280;15464;50.988;10.318;2023-07-22T06:00:20;98849.19;;;13.70;89.26
28181;BME280;15464;50.988;10.318;2023-07-22T06:02:48;98851.94;;;13.79;89.91
28181;BME280;15464;50.988;10.318;2023-07-22T06:05:15;98850.84;;;13.89;88.82
28181;BME280;15464;50.988;10.318;2023-07-22T06:07:42;98842.94;;;13.97;88.45
28181;BME280;15464;50.988;10.318;2023-07-22T06:10:09;98849.16;;;14.06;87.83
28181;BME280;15464;50.988;10.318;2023-07-22T06:12:36;98844.56;;;14.16;87.51
28181;BME280;15464;50.988;10.318;2023-07-22T06:15:05;98861.72;;;14.13;86.96
28181;BME280;15464;50.988;10.318;2023-07-22T06:17:33;98848.94;;;14.25;86.06
28181;BME280;15464;50.988;10.318;2023-07-22T06:20:00;98857.53;;;14.37;86.40
28181;BME280;15464;50.988;10.318;2023-07-22T06:22:27;98848.28;;;14.41;84.44
28181;BME280;15464;50.988;10.318;2023-07-22T06:24:54;98854.97;;;14.45;83.77
28181;BME280;15464;50.988;10.318;2023-07-22T06:27:20;98847.22;;;14.60;84.11
28181;BME280;15464;50.988;10.318;2023-07-22T06:29:47;98842.28;;;14.73;83.86
28181;BME280;15464;50.988;10.318;2023-07-22T06:32:14;98842.97;;;14.83;83.58
28181;BME280;15464;50.988;10.318;2023-07-22T06:34:40;98845.34;;;14.94;82.31
28181;BME280;15464;50.988;10.318;2023-07-22T06:37:07;98848.72;;;14.96;79.75
28181;BME280;15464;50.988;10.318;2023-07-22T06:39:34;98853.56;;;14.92;78.91
28181;BME280;15464;50.988;10.318;2023-07-22T06:42:00;98843.75;;;15.09;79.29
28181;BME280;15464;50.988;10.318;2023-07-22T06:44:27;98853.50;;;15.26;79.55
28181;BME280;15464;50.988;10.318;2023-07-22T06:46:55;98846.47;;;15.25;77.04
28181;BME280;15464;50.988;10.318;2023-07-22T06:49:23;98843.47;;;15.37;77.02
28181;BME280;15464;50.988;10.318;2023-07-22T06:51:50;98849.69;;;15.45;76.09
28181;BME280;15464;50.988;10.318;2023-07-22T06:54:16;98852.59;;;15.60;75.73
28181;BME280;15464;50.988;10.318;2023-07-22T06:56:43;98860.28;;;15.71;75.13
28181;BME280;15464;50.988;10.318;2023-07-22T06:59:09;98857.97;;;15.84;75.42
28181;BME280;15464;50.988;10.318;2023-07-22T07:01:36;98866.19;;;15.99;75.22
28181;BME280;15464;50.988;10.318;2023-07-22T07:04:03;98862.63;;;16.06;73.12
28181;BME280;15464;50.988;10.318;2023-07-22T07:06:30;98862.63;;;16.06;72.20
28181;BME280;15464;50.988;10.318;2023-07-22T07:08:59;98861.66;;;16.16;72.57
28181;BME280;15464;50.988;10.318;2023-07-22T07:11:28;98870.00;;;16.21;71.84
28181;BME280;15464;50.988;10.318;2023-07-22T07:13:54;98865.81;;;16.34;71.62
28181;BME280;15464;50.988;10.318;2023-07-22T07:16:26;98863.78;;;16.44;70.31
28181;BME280;15464;50.988;10.318;2023-07-22T07:18:54;98860.56;;;16.57;71.64
28181;BME280;15464;50.988;10.318;2023-07-22T07:21:22;98871.25;;;16.81;70.83
28181;BME280;15464;50.988;10.318;2023-07-22T07:23:49;98873.53;;;17.01;68.64
28181;BME280;15464;50.988;10.318;2023-07-22T07:26:16;98867.88;;;16.96;68.69
28181;BME280;15464;50.988;10.318;2023-07-22T07:28:43;98868.97;;;17.09;69.00
28181;BME280;15464;50.988;10.318;2023-07-22T07:31:09;98865.47;;;17.09;67.21
28181;BME280;15464;50.988;10.318;2023-07-22T07:33:36;98867.78;;;17.12;65.03
28181;BME280;15464;50.988;10.318;2023-07-22T07:36:03;98870.09;;;17.23;63.85
28181;BME280;15464;50.988;10.318;2023-07-22T07:38:30;98873.69;;;17.38;62.74
28181;BME280;15464;50.988;10.318;2023-07-22T07:41:03;98888.59;;;17.41;61.25
28181;BME280;15464;50.988;10.318;2023-07-22T07:43:30;98883.84;;;17.51;60.29
28181;BME280;15464;50.988;10.318;2023-07-22T07:46:22;98879.06;;;17.69;59.02
28181;BME280;15464;50.988;10.318;2023-07-22T07:48:52;98884.34;;;17.54;58.68
28181;BME280;15464;50.988;10.318;2023-07-22T07:51:20;98892.84;;;17.66;57.52
28181;BME280;15464;50.988;10.318;2023-07-22T07:53:48;98879.16;;;17.84;58.44
28181;BME280;15464;50.988;10.318;2023-07-22T07:56:16;98879.72;;;17.94;57.07
28181;BME280;15464;50.988;10.318;2023-07-22T07:58:44;98885.28;;;17.69;58.06
28181;BME280;15464;50.988;10.318;2023-07-22T08:01:12;98891.72;;;17.52;57.66
28181;BME280;15464;50.988;10.318;2023-07-22T08:03:40;98894.75;;;17.49;58.40
28181;BME280;15464;50.988;10.318;2023-07-22T08:06:09;98900.03;;;17.73;57.05
28181;BME280;15464;50.988;10.318;2023-07-22T08:08:37;98891.59;;;17.77;56.68
28181;BME280;15464;50.988;10.318;2023-07-22T08:11:06;98900.97;;;17.81;57.48
28181;BME280;15464;50.988;10.318;2023-07-22T08:13:34;98882.41;;;17.94;58.31
28181;BME280;15464;50.988;10.318;2023-07-22T08:16:03;98893.53;;;17.91;58.04
28181;BME280;15464;50.988;10.318;2023-07-22T08:18:32;98890.94;;;17.74;56.19
28181;BME280;15464;50.988;10.318;2023-07-22T08:21:00;98878.34;;;17.75;56.31
28181;BME280;15464;50.988;10.318;2023-07-22T08:23:27;98888.09;;;17.99;57.34
28181;BME280;15464;50.988;10.318;2023-07-22T08:25:54;98878.19;;;17.99;54.95
28181;BME280;15464;50.988;10.318;2023-07-22T08:28:20;98884.84;;;18.26;56.13
28181;BME280;15464;50.988;10.318;2023-07-22T08:30:48;98877.88;;;18.54;55.72
28181;BME280;15464;50.988;10.318;2023-07-22T08:33:15;98880.97;;;18.43;55.03
28181;BME280;15464;50.988;10.318;2023-07-22T08:35:56;98882.34;;;18.62;53.52
28181;BME280;15464;50.988;10.318;2023-07-22T08:38:23;98882.31;;;18.47;53.70
28181;BME280;15464;50.988;10.318;2023-07-22T08:40:50;98891.09;;;18.41;53.71
28181;BME280;15464;50.988;10.318;2023-07-22T08:43:20;98889.78;;;18.37;53.11
28181;BME280;15464;50.988;10.318;2023-07-22T08:45:48;98885.34;;;18.44;53.78
28181;BME280;15464;50.988;10.318;2023-07-22T08:48:17;98887.47;;;18.34;53.05
28181;BME280;15464;50.988;10.318;2023-07-22T08:50:45;98876.56;;;18.36;53.27
28181;BME280;15464;50.988;10.318;2023-07-22T08:53:12;98869.41;;;18.43;54.60
28181;BME280;15464;50.988;10.318;2023-07-22T08:55:39;98876.34;;;18.37;53.73
28181;BME280;15464;50.988;10.318;2023-07-22T08:58:10;98877.88;;;18.54;53.44
28181;BME280;15464;50.988;10.318;2023-07-22T09:00:38;98874.78;;;18.66;53.44
28181;BME280;15464;50.988;10.318;2023-07-22T09:03:06;98870.97;;;18.75;53.63
28181;BME280;15464;50.988;10.318;2023-07-22T09:05:34;98878.22;;;18.51;51.74
28181;BME280;15464;50.988;10.318;2023-07-22T09:08:03;98873.75;;;18.44;50.85
28181;BME280;15464;50.988;10.318;2023-07-22T09:10:31;98882.66;;;18.44;51.92
28181;BME280;15464;50.988;10.318;2023-07-22T09:12:59;98879.53;;;18.18;50.87
28181;BME280;15464;50.988;10.318;2023-07-22T09:15:27;98880.41;;;18.33;51.46
28181;BME280;15464;50.988;10.318;2023-07-22T09:17:54;98878.00;;;18.61;50.28
28181;BME280;15464;50.988;10.318;2023-07-22T09:20:21;98867.34;;;18.68;50.29
28181;BME280;15464;50.988;10.318;2023-07-22T09:22:50;98854.94;;;18.67;50.21
28181;BME280;15464;50.988;10.318;2023-07-22T09:25:37;98861.34;;;18.66;50.35
28181;BME280;15464;50.988;10.318;2023-07-22T09:28:04;98859.69;;;18.79;49.96
28181;BME280;15464;50.988;10.318;2023-07-22T09:30:38;98854.63;;;19.06;48.47
28181;BME280;15464;50.988;10.318;2023-07-22T09:33:20;98858.88;;;19.29;50.38
28181;BME280;15464;50.988;10.318;2023-07-22T09:35:48;98851.72;;;19.37;49.84
28181;BME280;15464;50.988;10.318;2023-07-22T09:38:25;98854.53;;;19.28;48.74
28181;BME280;15464;50.988;10.318;2023-07-22T09:40:52;98849.03;;;19.37;48.86
28181;BME280;15464;50.988;10.318;2023-07-22T09:43:19;98844.22;;;19.47;48.64
28181;BME280;15464;50.988;10.318;2023-07-22T09:45:49;98849.66;;;19.39;47.67
28181;BME280;15464;50.988;10.318;2023-07-22T09:48:16;98854.53;;;19.28;46.83
28181;BME280;15464;50.988;10.318;2023-07-22T09:50:43;98855.56;;;19.13;47.17
28181;BME280;15464;50.988;10.318;2023-07-22T09:53:15;98847.97;;;19.16;47.79
28181;BME280;15464;50.988;10.318;2023-07-22T09:55:41;98848.69;;;19.25;47.83
28181;BME280;15464;50.988;10.318;2023-07-22T09:58:08;98844.13;;;19.25;46.85
28181;BME280;15464;50.988;10.318;2023-07-22T10:00:36;98841.59;;;19.39;48.17
28181;BME280;15464;50.988;10.318;2023-07-22T10:03:04;98841.69;;;19.30;47.06
28181;BME280;15464;50.988;10.318;2023-07-22T10:05:35;98838.16;;;19.45;47.49
28181;BME280;15464;50.988;10.318;2023-07-22T10:08:02;98837.06;;;19.39;47.23
28181;BME280;15464;50.988;10.318;2023-07-22T10:10:38;98841.41;;;19.55;47.82
28181;BME280;15464;50.988;10.318;2023-07-22T10:13:05;98824.75;;;19.66;47.98
28181;BME280;15464;50.988;10.318;2023-07-22T10:15:32;98828.53;;;19.71;47.10
28181;BME280;15464;50.988;10.318;2023-07-22T10:18:02;98823.78;;;19.95;46.77
28181;BME280;15464;50.988;10.318;2023-07-22T10:20:29;98823.34;;;19.91;46.87
28181;BME280;15464;50.988;10.318;2023-07-22T10:22:56;98825.28;;;19.97;47.66
28181;BME280;15464;50.988;10.318;2023-07-22T10:25:24;98823.78;;;20.16;47.79
28181;BME280;15464;50.988;10.318;2023-07-22T10:27:52;98819.66;;;20.20;47.28
28181;BME280;15464;50.988;10.318;2023-07-22T10:30:19;98815.34;;;20.26;47.74
28181;BME280;15464;50.988;10.318;2023-07-22T10:32:47;98813.72;;;20.31;46.61
28181;BME280;15464;50.988;10.318;2023-07-22T10:38:10;98807.91;;;20.28;45.73
28181;BME280;15464;50.988;10.318;2023-07-22T10:43:11;98813.47;;;19.98;46.97
28181;BME280;15464;50.988;10.318;2023-07-22T10:45:43;98795.47;;;20.27;46.24
28181;BME280;15464;50.988;10.318;2023-07-22T10:48:11;98801.84;;;20.47;46.63
28181;BME280;15464;50.988;10.318;2023-07-22T10:53:14;98787.97;;;20.84;45.31
28181;BME280;15464;50.988;10.318;2023-07-22T11:04:25;98788.25;;;21.03;43.82
28181;BME280;15464;50.988;10.318;2023-07-22T11:07:34;98772.00;;;21.37;44.07
28181;BME280;15464;50.988;10.318;2023-07-22T11:10:18;98784.84;;;21.22;43.40
28181;BME280;15464;50.988;10.318;2023-07-22T11:12:46;98772.00;;;21.37;44.54
28181;BME280;15464;50.988;10.318;2023-07-22T11:15:15;98769.88;;;21.19;44.56
28181;BME280;15464;50.988;10.318;2023-07-22T11:17:42;98768.28;;;21.51;44.98
28181;BME280;15464;50.988;10.318;2023-07-22T11:20:09;98763.75;;;21.71;44.71
28181;BME280;15464;50.988;10.318;2023-07-22T11:22:39;98748.78;;;21.89;43.24
28181;BME280;15464;50.988;10.318;2023-07-22T11:25:07;98754.63;;;22.05;43.20
28181;BME280;15464;50.988;10.318;2023-07-22T11:27:34;98758.53;;;21.63;41.19
28181;BME280;15464;50.988;10.318;2023-07-22T11:30:02;98740.91;;;21.54;41.61
28181;BME280;15464;50.988;10.318;2023-07-22T11:32:31;98742.97;;;21.65;41.25
28181;BME280;15464;50.988;10.318;2023-07-22T11:34:58;98736.94;;;21.50;40.83
28181;BME280;15464;50.988;10.318;2023-07-22T11:37:27;98726.34;;;21.62;41.84
28181;BME280;15464;50.988;10.318;2023-07-22T11:39:59;98738.81;;;21.56;41.80
28181;BME280;15464;50.988;10.318;2023-07-22T11:42:25;98732.19;;;21.65;41.98
28181;BME280;15464;50.988;10.318;2023-07-22T11:44:52;98727.00;;;21.70;42.34
28181;BME280;15464;50.988;10.318;2023-07-22T11:47:19;98730.53;;;21.78;41.58
28181;BME280;15464;50.988;10.318;2023-07-22T11:49:47;98722.22;;;21.72;40.68
28181;BME280;15464;50.988;10.318;2023-07-22T11:52:17;98728.22;;;21.68;40.79
28181;BME280;15464;50.988;10.318;2023-07-22T11:54:45;98713.09;;;21.73;39.94
28181;BME280;15464;50.988;10.318;2023-07-22T11:57:20;98714.31;;;21.78;40.61
28181;BME280;15464;50.988;10.318;2023-07-22T11:59:49;98715.34;;;21.57;41.09
28181;BME280;15464;50.988;10.318;2023-07-22T12:02:21;98725.53;;;21.81;40.81
28181;BME280;15464;50.988;10.318;2023-07-22T12:04:57;98717.63;;;22.12;41.51
28181;BME280;15464;50.988;10.318;2023-07-22T12:10:07;98703.88;;;22.34;39.70
28181;BME280;15464;50.988;10.318;2023-07-22T12:12:44;98706.69;;;22.65;40.19
28181;BME280;15464;50.988;10.318;2023-07-22T12:15:22;98695.28;;;23.08;39.34
28181;BME280;15464;50.988;10.318;2023-07-22T12:20:19;98696.22;;;22.88;37.23
28181;BME280;15464;50.988;10.318;2023-07-22T12:22:49;98704.19;;;22.64;35.92
28181;BME280;15464;50.988;10.318;2023-07-22T12:25:16;98706.22;;;22.81;36.79
28181;BME280;15464;50.988;10.318;2023-07-22T12:27:43;98706.81;;;22.90;36.45
28181;BME280;15464;50.988;10.318;2023-07-22T12:30:11;98709.56;;;22.83;34.89
28181;BME280;15464;50.988;10.318;2023-07-22T12:32:38;98708.13;;;22.68;34.83
28181;BME280;15464;50.988;10.318;2023-07-22T12:35:06;98702.59;;;22.43;36.23
28181;BME280;15464;50.988;10.318;2023-07-22T12:37:33;98704.25;;;22.44;36.50
28181;BME280;15464;50.988;10.318;2023-07-22T12:40:00;98701.81;;;22.29;36.60
28181;BME280;15464;50.988;10.318;2023-07-22T12:42:27;98699.66;;;22.58;37.04
28181;BME280;15464;50.988;10.318;2023-07-22T12:44:54;98693.16;;;22.72;38.22
28181;BME280;15464;50.988;10.318;2023-07-22T12:47:20;98689.69;;;22.51;36.70
28181;BME280;15464;50.988;10.318;2023-07-22T12:49:47;98692.72;;;22.17;36.51
28181;BME280;15464;50.988;10.318;2023-07-22T12:52:14;98696.28;;;22.62;36.04
28181;BME280;15464;50.988;10.318;2023-07-22T12:54:40;98690.00;;;22.81;36.80
28181;BME280;15464;50.988;10.318;2023-07-22T12:57:07;98694.88;;;22.60;35.44
28181;BME280;15464;50.988;10.318;2023-07-22T12:59:34;98693.75;;;22.16;36.55
28181;BME280;15464;50.988;10.318;2023-07-22T13:02:01;98696.44;;;22.29;37.51
28181;BME280;15464;50.988;10.318;2023-07-22T13:04:27;98693.50;;;22.18;37.28
28181;BME280;15464;50.988;10.318;2023-07-22T13:06:54;98690.63;;;22.06;37.77
28181;BME280;15464;50.988;10.318;2023-07-22T13:09:20;98692.50;;;22.05;37.93
28181;BME280;15464;50.988;10.318;2023-07-22T13:11:47;98690.66;;;21.86;38.09
28181;BME280;15464;50.988;10.318;2023-07-22T13:14:15;98682.13;;;22.02;37.99
28181;BME280;15464;50.988;10.318;2023-07-22T13:16:43;98680.44;;;22.21;37.87